sensor_id;sensor_type;location;lat;lon;timestamp;P1;durP1;ratioP1;P2;durP2;ratioP2
71867;SDS011;59738;48.324;14.230;2023-06-26T00:00:25;7.32;;;4.32;;
71867;SDS011;59738;48.324;14.230;2023-06-26T00:02:54;7.30;;;4.20;;
71867;SDS011;59738;48.324;14.230;2023-06-26T00:05:21;5.10;;;4.05;;
71867;SDS011;59738;48.324;14.230;2023-06-26T00:07:48;6.17;;;4.37;;
71867;SDS011;59738;48.324;14.230;2023-06-26T00:10:15;6.55;;;4.63;;
71867;SDS011;59738;48.324;14.230;2023-06-26T00:12:42;6.47;;;4.40;;
71867;SDS011;59738;48.324;14.230;2023-06-26T00:15:09;6.07;;;4.30;;
71867;SDS011;59738;48.324;14.230;2023-06-26T00:17:36;6.70;;;4.63;;
71867;SDS011;59738;48.324;14.230;2023-06-26T00:20:05;6.80;;;4.30;;
71867;SDS011;59738;48.324;14.230;2023-06-26T00:22:37;6.47;;;4.10;;
71867;SDS011;59738;48.324;14.230;2023-06-26T00:25:06;6.32;;;4.43;;
71867;SDS011;59738;48.324;14.230;2023-06-26T00:27:33;6.53;;;4.57;;
71867;SDS011;59738;48.324;14.230;2023-06-26T00:30:00;6.25;;;4.60;;
71867;SDS011;59738;48.324;14.230;2023-06-26T00:32:27;7.27;;;4.60;;
71867;SDS011;59738;48.324;14.230;2023-06-26T00:34:54;7.82;;;4.82;;
71867;SDS011;59738;48.324;14.230;2023-06-26T00:37:22;7.72;;;4.40;;
71867;SDS011;59738;48.324;14.230;2023-06-26T00:39:49;8.57;;;4.90;;
71867;SDS011;59738;48.324;14.230;2023-06-26T00:42:16;7.35;;;4.88;;
71867;SDS011;59738;48.324;14.230;2023-06-26T00:44:44;6.67;;;4.60;;
71867;SDS011;59738;48.324;14.230;2023-06-26T00:47:13;8.52;;;4.70;;
71867;SDS011;59738;48.324;14.230;2023-06-26T00:49:41;7.55;;;4.65;;
71867;SDS011;59738;48.324;14.230;2023-06-26T00:52:08;8.35;;;5.00;;
71867;SDS011;59738;48.324;14.230;2023-06-26T00:54:36;7.63;;;4.80;;
71867;SDS011;59738;48.324;14.230;2023-06-26T00:57:04;7.07;;;4.80;;
71867;SDS011;59738;48.324;14.230;2023-06-26T00:59:33;6.97;;;5.22;;
71867;SDS011;59738;48.324;14.230;2023-06-26T01:02:00;8.65;;;5.00;;
71867;SDS011;59738;48.324;14.230;2023-06-26T01:04:27;8.65;;;5.22;;
71867;SDS011;59738;48.324;14.230;2023-06-26T01:06:58;7.82;;;5.05;;
71867;SDS011;59738;48.324;14.230;2023-06-26T01:09:25;7.17;;;4.43;;
71867;SDS011;59738;48.324;14.230;2023-06-26T01:11:54;7.32;;;4.50;;
71867;SDS011;59738;48.324;14.230;2023-06-26T01:14:21;8.65;;;4.38;;
71867;SDS011;59738;48.324;14.230;2023-06-26T01:16:48;7.75;;;4.75;;
71867;SDS011;59738;48.324;14.230;2023-06-26T01:19:18;7.05;;;4.82;;
71867;SDS011;59738;48.324;14.230;2023-06-26T01:21:51;7.40;;;4.87;;
71867;SDS011;59738;48.324;14.230;2023-06-26T01:24:22;7.55;;;4.82;;
71867;SDS011;59738;48.324;14.230;2023-06-26T01:26:54;7.38;;;4.82;;
71867;SDS011;59738;48.324;14.230;2023-06-26T01:29:21;7.95;;;5.07;;
71867;SDS011;59738;48.324;14.230;2023-06-26T01:31:50;7.90;;;4.65;;
71867;SDS011;59738;48.324;14.230;2023-06-26T01:34:17;6.40;;;4.87;;
71867;SDS011;59738;48.324;14.230;2023-06-26T01:36:44;8.32;;;4.50;;
71867;SDS011;59738;48.324;14.230;2023-06-26T01:39:12;7.05;;;4.57;;
71867;SDS011;59738;48.324;14.230;2023-06-26T01:41:39;6.03;;;4.60;;
71867;SDS011;59738;48.324;14.230;2023-06-26T01:44:16;8.95;;;5.07;;
71867;SDS011;59738;48.324;14.230;2023-06-26T01:46:47;7.13;;;4.37;;
71867;SDS011;59738;48.324;14.230;2023-06-26T01:49:18;7.18;;;4.60;;
71867;SDS011;59738;48.324;14.230;2023-06-26T01:51:51;8.63;;;4.93;;
71867;SDS011;59738;48.324;14.230;2023-06-26T01:54:21;6.90;;;4.68;;
71867;SDS011;59738;48.324;14.230;2023-06-26T01:56:50;10.77;;;4.97;;
71867;SDS011;59738;48.324;14.230;2023-06-26T01:59:20;9.80;;;5.87;;
71867;SDS011;59738;48.324;14.230;2023-06-26T02:01:48;11.02;;;6.10;;
71867;SDS011;59738;48.324;14.230;2023-06-26T02:04:15;9.57;;;6.05;;
71867;SDS011;59738;48.324;14.230;2023-06-26T02:06:42;9.07;;;5.68;;
71867;SDS011;59738;48.324;14.230;2023-06-26T02:09:09;14.20;;;6.40;;
71867;SDS011;59738;48.324;14.230;2023-06-26T02:11:36;11.93;;;6.83;;
71867;SDS011;59738;48.324;14.230;2023-06-26T02:14:03;9.43;;;6.13;;
71867;SDS011;59738;48.324;14.230;2023-06-26T02:16:31;8.65;;;5.05;;
71867;SDS011;59738;48.324;14.230;2023-06-26T02:18:58;8.90;;;5.65;;
71867;SDS011;59738;48.324;14.230;2023-06-26T02:21:25;9.55;;;6.25;;
71867;SDS011;59738;48.324;14.230;2023-06-26T02:23:55;10.83;;;5.43;;
71867;SDS011;59738;48.324;14.230;2023-06-26T02:26:22;8.07;;;5.43;;
71867;SDS011;59738;48.324;14.230;2023-06-26T02:28:50;8.25;;;5.68;;
71867;SDS011;59738;48.324;14.230;2023-06-26T02:31:17;10.52;;;6.07;;
71867;SDS011;59738;48.324;14.230;2023-06-26T02:33:45;10.95;;;5.85;;
71867;SDS011;59738;48.324;14.230;2023-06-26T02:36:12;9.07;;;5.70;;
71867;SDS011;59738;48.324;14.230;2023-06-26T02:38:39;9.98;;;5.68;;
71867;SDS011;59738;48.324;14.230;2023-06-26T02:41:08;9.15;;;5.50;;
71867;SDS011;59738;48.324;14.230;2023-06-26T02:43:35;9.93;;;6.05;;
71867;SDS011;59738;48.324;14.230;2023-06-26T02:46:02;11.77;;;7.15;;
71867;SDS011;59738;48.324;14.230;2023-06-26T02:48:29;9.00;;;6.03;;
71867;SDS011;59738;48.324;14.230;2023-06-26T02:50:58;9.95;;;6.75;;
71867;SDS011;59738;48.324;14.230;2023-06-26T02:53:28;10.77;;;6.88;;
71867;SDS011;59738;48.324;14.230;2023-06-26T02:55:55;10.88;;;6.47;;
71867;SDS011;59738;48.324;14.230;2023-06-26T02:58:22;11.70;;;6.88;;
71867;SDS011;59738;48.324;14.230;2023-06-26T03:00:50;11.23;;;6.77;;
71867;SDS011;59738;48.324;14.230;2023-06-26T03:03:19;11.40;;;7.20;;
71867;SDS011;59738;48.324;14.230;2023-06-26T03:05:46;11.18;;;7.10;;
71867;SDS011;59738;48.324;14.230;2023-06-26T03:08:15;12.52;;;7.20;;
71867;SDS011;59738;48.324;14.230;2023-06-26T03:10:41;13.40;;;8.10;;
71867;SDS011;59738;48.324;14.230;2023-06-26T03:13:10;13.00;;;7.57;;
71867;SDS011;59738;48.324;14.230;2023-06-26T03:15:37;12.00;;;7.65;;
71867;SDS011;59738;48.324;14.230;2023-06-26T03:18:05;12.50;;;7.82;;
71867;SDS011;59738;48.324;14.230;2023-06-26T03:20:32;11.45;;;7.22;;
71867;SDS011;59738;48.324;14.230;2023-06-26T03:22:59;11.77;;;7.63;;
71867;SDS011;59738;48.324;14.230;2023-06-26T03:25:28;12.33;;;7.37;;
71867;SDS011;59738;48.324;14.230;2023-06-26T03:28:06;11.73;;;7.53;;
71867;SDS011;59738;48.324;14.230;2023-06-26T03:30:35;12.55;;;6.38;;
71867;SDS011;59738;48.324;14.230;2023-06-26T03:33:02;13.10;;;6.90;;
71867;SDS011;59738;48.324;14.230;2023-06-26T03:35:29;12.00;;;7.57;;
71867;SDS011;59738;48.324;14.230;2023-06-26T03:37:56;13.53;;;7.70;;
71867;SDS011;59738;48.324;14.230;2023-06-26T03:40:23;10.82;;;7.47;;
71867;SDS011;59738;48.324;14.230;2023-06-26T03:42:52;11.85;;;7.38;;
71867;SDS011;59738;48.324;14.230;2023-06-26T03:45:19;12.90;;;7.68;;
71867;SDS011;59738;48.324;14.230;2023-06-26T03:47:47;12.65;;;6.80;;
71867;SDS011;59738;48.324;14.230;2023-06-26T03:50:15;11.33;;;6.60;;
71867;SDS011;59738;48.324;14.230;2023-06-26T03:52:42;13.65;;;7.25;;
71867;SDS011;59738;48.324;14.230;2023-06-26T03:55:12;12.27;;;7.80;;
71867;SDS011;59738;48.324;14.230;2023-06-26T03:57:39;12.77;;;7.57;;
71867;SDS011;59738;48.324;14.230;2023-06-26T04:00:11;10.52;;;7.22;;
71867;SDS011;59738;48.324;14.230;2023-06-26T04:02:42;12.13;;;7.30;;
71867;SDS011;59738;48.324;14.230;2023-06-26T04:05:10;12.23;;;6.97;;
71867;SDS011;59738;48.324;14.230;2023-06-26T04:07:37;11.77;;;6.95;;
71867;SDS011;59738;48.324;14.230;2023-06-26T04:10:06;14.02;;;7.30;;
71867;SDS011;59738;48.324;14.230;2023-06-26T04:12:34;14.05;;;8.05;;
71867;SDS011;59738;48.324;14.230;2023-06-26T04:15:01;12.00;;;7.27;;
71867;SDS011;59738;48.324;14.230;2023-06-26T04:17:29;11.20;;;7.43;;
71867;SDS011;59738;48.324;14.230;2023-06-26T04:19:56;12.73;;;7.50;;
71867;SDS011;59738;48.324;14.230;2023-06-26T04:22:23;11.15;;;7.10;;
71867;SDS011;59738;48.324;14.230;2023-06-26T04:24:51;20.77;;;8.13;;
71867;SDS011;59738;48.324;14.230;2023-06-26T04:27:18;12.37;;;7.77;;
71867;SDS011;59738;48.324;14.230;2023-06-26T04:29:45;11.60;;;7.20;;
71867;SDS011;59738;48.324;14.230;2023-06-26T04:32:12;13.48;;;8.05;;
71867;SDS011;59738;48.324;14.230;2023-06-26T04:34:40;10.57;;;6.65;;
71867;SDS011;59738;48.324;14.230;2023-06-26T04:37:09;11.07;;;7.07;;
71867;SDS011;59738;48.324;14.230;2023-06-26T04:39:36;12.33;;;6.73;;
71867;SDS011;59738;48.324;14.230;2023-06-26T04:42:04;14.52;;;7.05;;
71867;SDS011;59738;48.324;14.230;2023-06-26T04:44:31;18.02;;;7.00;;
71867;SDS011;59738;48.324;14.230;2023-06-26T04:46:58;11.57;;;7.25;;
71867;SDS011;59738;48.324;14.230;2023-06-26T04:49:25;12.60;;;6.95;;
71867;SDS011;59738;48.324;14.230;2023-06-26T04:51:54;13.50;;;7.23;;
71867;SDS011;59738;48.324;14.230;2023-06-26T04:54:21;11.15;;;7.15;;
71867;SDS011;59738;48.324;14.230;2023-06-26T04:56:48;18.98;;;7.88;;
71867;SDS011;59738;48.324;14.230;2023-06-26T04:59:15;10.38;;;6.85;;
71867;SDS011;59738;48.324;14.230;2023-06-26T05:01:42;13.10;;;7.63;;
71867;SDS011;59738;48.324;14.230;2023-06-26T05:04:13;12.27;;;7.97;;
71867;SDS011;59738;48.324;14.230;2023-06-26T05:06:40;13.18;;;7.90;;
71867;SDS011;59738;48.324;14.230;2023-06-26T05:09:09;13.25;;;7.50;;
71867;SDS011;59738;48.324;14.230;2023-06-26T05:11:36;19.25;;;6.97;;
71867;SDS011;59738;48.324;14.230;2023-06-26T05:14:03;10.52;;;6.78;;
71867;SDS011;59738;48.324;14.230;2023-06-26T05:16:32;12.07;;;7.00;;
71867;SDS011;59738;48.324;14.230;2023-06-26T05:18:59;10.40;;;6.60;;
71867;SDS011;59738;48.324;14.230;2023-06-26T05:21:27;12.15;;;6.50;;
71867;SDS011;59738;48.324;14.230;2023-06-26T05:23:55;10.48;;;6.10;;
71867;SDS011;59738;48.324;14.230;2023-06-26T05:26:24;10.05;;;6.03;;
71867;SDS011;59738;48.324;14.230;2023-06-26T05:28:52;9.27;;;5.60;;
71867;SDS011;59738;48.324;14.230;2023-06-26T05:31:19;9.93;;;5.90;;
71867;SDS011;59738;48.324;14.230;2023-06-26T05:33:46;8.02;;;5.30;;
71867;SDS011;59738;48.324;14.230;2023-06-26T05:36:13;9.98;;;6.68;;
71867;SDS011;59738;48.324;14.230;2023-06-26T05:38:42;10.70;;;5.90;;
71867;SDS011;59738;48.324;14.230;2023-06-26T05:41:10;10.20;;;6.30;;
71867;SDS011;59738;48.324;14.230;2023-06-26T05:43:39;11.68;;;5.72;;
71867;SDS011;59738;48.324;14.230;2023-06-26T05:46:06;11.00;;;6.18;;
71867;SDS011;59738;48.324;14.230;2023-06-26T05:48:33;8.65;;;5.60;;
71867;SDS011;59738;48.324;14.230;2023-06-26T05:51:00;15.60;;;6.03;;
71867;SDS011;59738;48.324;14.230;2023-06-26T05:53:27;8.23;;;5.87;;
71867;SDS011;59738;48.324;14.230;2023-06-26T05:55:55;16.33;;;6.47;;
71867;SDS011;59738;48.324;14.230;2023-06-26T05:58:24;9.25;;;5.85;;
71867;SDS011;59738;48.324;14.230;2023-06-26T06:00:53;11.23;;;5.85;;
71867;SDS011;59738;48.324;14.230;2023-06-26T06:03:21;9.52;;;6.30;;
71867;SDS011;59738;48.324;14.230;2023-06-26T06:05:48;11.27;;;6.00;;
71867;SDS011;59738;48.324;14.230;2023-06-26T06:08:15;9.35;;;5.90;;
71867;SDS011;59738;48.324;14.230;2023-06-26T06:10:42;9.68;;;5.75;;
71867;SDS011;59738;48.324;14.230;2023-06-26T06:13:08;10.25;;;6.07;;
71867;SDS011;59738;48.324;14.230;2023-06-26T06:15:35;11.38;;;6.55;;
71867;SDS011;59738;48.324;14.230;2023-06-26T06:18:04;8.77;;;6.07;;
71867;SDS011;59738;48.324;14.230;2023-06-26T06:20:31;13.95;;;6.05;;
71867;SDS011;59738;48.324;14.230;2023-06-26T06:22:58;12.85;;;6.18;;
71867;SDS011;59738;48.324;14.230;2023-06-26T06:25:25;10.85;;;6.13;;
71867;SDS011;59738;48.324;14.230;2023-06-26T06:27:52;10.77;;;6.57;;
71867;SDS011;59738;48.324;14.230;2023-06-26T06:30:19;10.40;;;5.97;;
71867;SDS011;59738;48.324;14.230;2023-06-26T06:32:45;11.77;;;6.30;;
71867;SDS011;59738;48.324;14.230;2023-06-26T06:35:17;10.90;;;7.07;;
71867;SDS011;59738;48.324;14.230;2023-06-26T06:37:44;11.05;;;6.80;;
71867;SDS011;59738;48.324;14.230;2023-06-26T06:40:11;10.52;;;6.30;;
71867;SDS011;59738;48.324;14.230;2023-06-26T06:42:39;10.87;;;6.23;;
71867;SDS011;59738;48.324;14.230;2023-06-26T06:45:06;11.10;;;6.07;;
71867;SDS011;59738;48.324;14.230;2023-06-26T06:47:33;10.98;;;6.25;;
71867;SDS011;59738;48.324;14.230;2023-06-26T06:50:00;15.98;;;6.63;;
71867;SDS011;59738;48.324;14.230;2023-06-26T06:52:35;11.05;;;6.25;;
71867;SDS011;59738;48.324;14.230;2023-06-26T06:55:03;12.30;;;5.93;;
71867;SDS011;59738;48.324;14.230;2023-06-26T06:57:32;15.20;;;6.35;;
71867;SDS011;59738;48.324;14.230;2023-06-26T07:00:01;9.73;;;6.65;;
71867;SDS011;59738;48.324;14.230;2023-06-26T07:02:30;8.68;;;5.95;;
71867;SDS011;59738;48.324;14.230;2023-06-26T07:04:57;10.63;;;6.32;;
71867;SDS011;59738;48.324;14.230;2023-06-26T07:07:24;8.93;;;5.67;;
71867;SDS011;59738;48.324;14.230;2023-06-26T07:09:56;9.25;;;6.10;;
71867;SDS011;59738;48.324;14.230;2023-06-26T07:12:24;10.98;;;7.25;;
71867;SDS011;59738;48.324;14.230;2023-06-26T07:14:51;10.00;;;5.75;;
71867;SDS011;59738;48.324;14.230;2023-06-26T07:17:19;9.48;;;6.32;;
71867;SDS011;59738;48.324;14.230;2023-06-26T07:19:46;9.30;;;5.70;;
71867;SDS011;59738;48.324;14.230;2023-06-26T07:22:13;13.38;;;6.68;;
71867;SDS011;59738;48.324;14.230;2023-06-26T07:24:40;9.52;;;6.03;;
71867;SDS011;59738;48.324;14.230;2023-06-26T07:27:08;11.23;;;6.50;;
71867;SDS011;59738;48.324;14.230;2023-06-26T07:29:35;10.27;;;6.25;;
71867;SDS011;59738;48.324;14.230;2023-06-26T07:32:02;11.87;;;6.53;;
71867;SDS011;59738;48.324;14.230;2023-06-26T07:34:29;10.27;;;6.68;;
71867;SDS011;59738;48.324;14.230;2023-06-26T07:36:56;9.20;;;6.63;;
71867;SDS011;59738;48.324;14.230;2023-06-26T07:39:23;11.32;;;6.75;;
71867;SDS011;59738;48.324;14.230;2023-06-26T07:41:50;10.25;;;6.30;;
71867;SDS011;59738;48.324;14.230;2023-06-26T07:44:18;10.97;;;6.80;;
71867;SDS011;59738;48.324;14.230;2023-06-26T07:46:45;10.32;;;6.90;;
71867;SDS011;59738;48.324;14.230;2023-06-26T07:49:12;12.02;;;6.47;;
71867;SDS011;59738;48.324;14.230;2023-06-26T07:51:39;11.65;;;6.50;;
71867;SDS011;59738;48.324;14.230;2023-06-26T07:54:06;11.15;;;6.85;;
71867;SDS011;59738;48.324;14.230;2023-06-26T07:56:35;10.07;;;6.53;;
71867;SDS011;59738;48.324;14.230;2023-06-26T07:59:02;9.73;;;6.10;;
71867;SDS011;59738;48.324;14.230;2023-06-26T08:01:31;9.82;;;6.30;;
71867;SDS011;59738;48.324;14.230;2023-06-26T08:03:58;10.38;;;6.53;;
71867;SDS011;59738;48.324;14.230;2023-06-26T08:06:25;12.82;;;6.47;;
71867;SDS011;59738;48.324;14.230;2023-06-26T08:08:52;10.67;;;7.20;;
71867;SDS011;59738;48.324;14.230;2023-06-26T08:11:19;11.60;;;6.60;;
71867;SDS011;59738;48.324;14.230;2023-06-26T08:13:46;10.35;;;5.97;;
71867;SDS011;59738;48.324;14.230;2023-06-26T08:16:13;9.00;;;6.30;;
71867;SDS011;59738;48.324;14.230;2023-06-26T08:18:41;10.45;;;6.75;;
71867;SDS011;59738;48.324;14.230;2023-06-26T08:21:08;10.60;;;6.47;;
71867;SDS011;59738;48.324;14.230;2023-06-26T08:23:36;9.50;;;6.45;;
71867;SDS011;59738;48.324;14.230;2023-06-26T08:26:03;9.80;;;6.57;;
71867;SDS011;59738;48.324;14.230;2023-06-26T08:28:30;14.20;;;7.28;;
71867;SDS011;59738;48.324;14.230;2023-06-26T08:30:57;8.93;;;6.30;;
71867;SDS011;59738;48.324;14.230;2023-06-26T08:33:25;11.17;;;6.87;;
71867;SDS011;59738;48.324;14.230;2023-06-26T08:35:53;8.57;;;6.15;;
71867;SDS011;59738;48.324;14.230;2023-06-26T08:38:20;12.13;;;6.72;;
71867;SDS011;59738;48.324;14.230;2023-06-26T08:40:47;10.95;;;6.20;;
71867;SDS011;59738;48.324;14.230;2023-06-26T08:43:14;13.10;;;6.95;;
71867;SDS011;59738;48.324;14.230;2023-06-26T08:45:41;9.67;;;5.77;;
71867;SDS011;59738;48.324;14.230;2023-06-26T08:48:08;10.60;;;6.70;;
71867;SDS011;59738;48.324;14.230;2023-06-26T08:50:36;7.82;;;5.90;;
71867;SDS011;59738;48.324;14.230;2023-06-26T08:53:08;8.65;;;6.00;;
71867;SDS011;59738;48.324;14.230;2023-06-26T08:55:38;7.93;;;5.88;;
71867;SDS011;59738;48.324;14.230;2023-06-26T08:58:07;9.53;;;6.30;;
71867;SDS011;59738;48.324;14.230;2023-06-26T09:00:34;9.73;;;6.22;;
71867;SDS011;59738;48.324;14.230;2023-06-26T09:03:01;8.68;;;6.10;;
71867;SDS011;59738;48.324;14.230;2023-06-26T09:05:30;9.98;;;6.05;;
71867;SDS011;59738;48.324;14.230;2023-06-26T09:07:57;8.07;;;5.65;;
71867;SDS011;59738;48.324;14.230;2023-06-26T09:10:26;52.47;;;8.30;;
71867;SDS011;59738;48.324;14.230;2023-06-26T09:12:55;12.55;;;6.03;;
71867;SDS011;59738;48.324;14.230;2023-06-26T09:15:22;13.15;;;6.40;;
71867;SDS011;59738;48.324;14.230;2023-06-26T09:17:49;9.93;;;5.75;;
71867;SDS011;59738;48.324;14.230;2023-06-26T09:20:16;12.18;;;6.10;;
71867;SDS011;59738;48.324;14.230;2023-06-26T09:22:43;9.07;;;6.27;;
71867;SDS011;59738;48.324;14.230;2023-06-26T09:25:14;12.63;;;6.25;;
71867;SDS011;59738;48.324;14.230;2023-06-26T09:27:42;8.77;;;6.30;;
71867;SDS011;59738;48.324;14.230;2023-06-26T09:30:09;9.10;;;5.70;;
71867;SDS011;59738;48.324;14.230;2023-06-26T09:32:37;18.48;;;6.57;;
71867;SDS011;59738;48.324;14.230;2023-06-26T09:35:04;8.27;;;5.40;;
71867;SDS011;59738;48.324;14.230;2023-06-26T09:37:31;6.55;;;5.13;;
71867;SDS011;59738;48.324;14.230;2023-06-26T09:39:59;7.22;;;5.18;;
71867;SDS011;59738;48.324;14.230;2023-06-26T09:42:26;8.80;;;5.85;;
71867;SDS011;59738;48.324;14.230;2023-06-26T09:44:54;9.25;;;5.63;;
71867;SDS011;59738;48.324;14.230;2023-06-26T09:47:21;7.33;;;5.53;;
71867;SDS011;59738;48.324;14.230;2023-06-26T09:49:49;8.25;;;5.93;;
71867;SDS011;59738;48.324;14.230;2023-06-26T09:52:17;9.88;;;6.25;;
71867;SDS011;59738;48.324;14.230;2023-06-26T09:54:45;8.45;;;5.25;;
71867;SDS011;59738;48.324;14.230;2023-06-26T09:57:12;6.80;;;5.47;;
71867;SDS011;59738;48.324;14.230;2023-06-26T09:59:40;7.43;;;5.57;;
71867;SDS011;59738;48.324;14.230;2023-06-26T10:02:08;6.68;;;5.05;;
71867;SDS011;59738;48.324;14.230;2023-06-26T10:04:36;8.85;;;5.60;;
71867;SDS011;59738;48.324;14.230;2023-06-26T10:07:04;11.95;;;5.95;;
71867;SDS011;59738;48.324;14.230;2023-06-26T10:09:32;8.40;;;5.78;;
71867;SDS011;59738;48.324;14.230;2023-06-26T10:12:00;7.93;;;5.33;;
71867;SDS011;59738;48.324;14.230;2023-06-26T10:14:31;7.65;;;5.22;;
71867;SDS011;59738;48.324;14.230;2023-06-26T10:16:59;8.77;;;5.57;;
71867;SDS011;59738;48.324;14.230;2023-06-26T10:19:29;6.75;;;5.13;;
71867;SDS011;59738;48.324;14.230;2023-06-26T10:21:58;10.48;;;5.22;;
71867;SDS011;59738;48.324;14.230;2023-06-26T10:24:26;7.37;;;5.83;;
71867;SDS011;59738;48.324;14.230;2023-06-26T10:26:55;7.05;;;5.30;;
71867;SDS011;59738;48.324;14.230;2023-06-26T10:29:24;6.88;;;5.45;;
71867;SDS011;59738;48.324;14.230;2023-06-26T10:31:52;7.85;;;5.40;;
71867;SDS011;59738;48.324;14.230;2023-06-26T10:34:21;9.40;;;6.18;;
71867;SDS011;59738;48.324;14.230;2023-06-26T10:36:55;6.67;;;5.17;;
71867;SDS011;59738;48.324;14.230;2023-06-26T10:39:25;7.88;;;5.30;;
71867;SDS011;59738;48.324;14.230;2023-06-26T10:41:54;9.18;;;6.22;;
71867;SDS011;59738;48.324;14.230;2023-06-26T10:44:21;7.07;;;5.32;;
71867;SDS011;59738;48.324;14.230;2023-06-26T10:46:48;6.68;;;5.30;;
71867;SDS011;59738;48.324;14.230;2023-06-26T10:49:16;10.00;;;5.53;;
71867;SDS011;59738;48.324;14.230;2023-06-26T10:51:46;7.40;;;4.78;;
71867;SDS011;59738;48.324;14.230;2023-06-26T10:54:16;6.55;;;4.95;;
71867;SDS011;59738;48.324;14.230;2023-06-26T10:56:44;7.60;;;4.53;;
71867;SDS011;59738;48.324;14.230;2023-06-26T10:59:15;10.77;;;5.10;;
71867;SDS011;59738;48.324;14.230;2023-06-26T11:01:43;8.33;;;4.70;;
71867;SDS011;59738;48.324;14.230;2023-06-26T11:04:10;7.43;;;4.65;;
71867;SDS011;59738;48.324;14.230;2023-06-26T11:06:38;10.02;;;4.68;;
71867;SDS011;59738;48.324;14.230;2023-06-26T11:09:13;16.33;;;5.30;;
71867;SDS011;59738;48.324;14.230;2023-06-26T11:12:00;7.68;;;4.82;;
71867;SDS011;59738;48.324;14.230;2023-06-26T11:14:33;5.43;;;4.37;;
71867;SDS011;59738;48.324;14.230;2023-06-26T11:17:03;8.20;;;4.80;;
71867;SDS011;59738;48.324;14.230;2023-06-26T11:19:31;6.45;;;4.93;;
71867;SDS011;59738;48.324;14.230;2023-06-26T11:21:58;10.18;;;5.07;;
71867;SDS011;59738;48.324;14.230;2023-06-26T11:24:25;7.43;;;5.00;;
71867;SDS011;59738;48.324;14.230;2023-06-26T11:26:52;7.93;;;4.97;;
71867;SDS011;59738;48.324;14.230;2023-06-26T11:29:21;10.27;;;4.68;;
71867;SDS011;59738;48.324;14.230;2023-06-26T11:31:48;6.65;;;4.78;;
71867;SDS011;59738;48.324;14.230;2023-06-26T11:34:25;6.18;;;4.30;;
71867;SDS011;59738;48.324;14.230;2023-06-26T11:36:56;7.45;;;4.32;;
71867;SDS011;59738;48.324;14.230;2023-06-26T11:39:23;12.93;;;5.27;;
71867;SDS011;59738;48.324;14.230;2023-06-26T11:41:51;5.47;;;4.60;;
71867;SDS011;59738;48.324;14.230;2023-06-26T11:44:18;5.78;;;3.90;;
71867;SDS011;59738;48.324;14.230;2023-06-26T11:46:47;6.35;;;4.70;;
71867;SDS011;59738;48.324;14.230;2023-06-26T11:49:17;5.72;;;4.35;;
71867;SDS011;59738;48.324;14.230;2023-06-26T11:51:48;9.00;;;4.10;;
71867;SDS011;59738;48.324;14.230;2023-06-26T11:54:22;8.10;;;3.83;;
71867;SDS011;59738;48.324;14.230;2023-06-26T11:56:51;6.88;;;3.90;;
71867;SDS011;59738;48.324;14.230;2023-06-26T11:59:18;6.38;;;4.03;;
71867;SDS011;59738;48.324;14.230;2023-06-26T12:01:46;5.32;;;4.05;;
71867;SDS011;59738;48.324;14.230;2023-06-26T12:04:14;5.07;;;3.53;;
71867;SDS011;59738;48.324;14.230;2023-06-26T12:06:42;4.97;;;3.78;;
71867;SDS011;59738;48.324;14.230;2023-06-26T12:09:10;5.85;;;4.00;;
71867;SDS011;59738;48.324;14.230;2023-06-26T12:11:38;9.10;;;4.25;;
71867;SDS011;59738;48.324;14.230;2023-06-26T12:14:05;6.72;;;4.40;;
71867;SDS011;59738;48.324;14.230;2023-06-26T12:16:33;8.33;;;4.50;;
71867;SDS011;59738;48.324;14.230;2023-06-26T12:19:01;83.97;;;8.10;;
71867;SDS011;59738;48.324;14.230;2023-06-26T12:21:33;8.05;;;3.80;;
71867;SDS011;59738;48.324;14.230;2023-06-26T12:24:12;5.82;;;4.00;;
71867;SDS011;59738;48.324;14.230;2023-06-26T12:26:41;8.80;;;4.00;;
71867;SDS011;59738;48.324;14.230;2023-06-26T12:29:09;6.67;;;3.80;;
71867;SDS011;59738;48.324;14.230;2023-06-26T12:31:39;5.43;;;4.00;;
71867;SDS011;59738;48.324;14.230;2023-06-26T12:34:10;5.22;;;4.05;;
71867;SDS011;59738;48.324;14.230;2023-06-26T12:36:39;5.55;;;3.97;;
71867;SDS011;59738;48.324;14.230;2023-06-26T12:39:08;11.85;;;4.65;;
71867;SDS011;59738;48.324;14.230;2023-06-26T12:41:36;6.37;;;4.70;;
71867;SDS011;59738;48.324;14.230;2023-06-26T12:44:15;16.10;;;5.75;;
71867;SDS011;59738;48.324;14.230;2023-06-26T12:46:42;11.55;;;5.38;;
71867;SDS011;59738;48.324;14.230;2023-06-26T12:49:13;8.70;;;4.88;;
71867;SDS011;59738;48.324;14.230;2023-06-26T12:51:40;15.80;;;5.20;;
71867;SDS011;59738;48.324;14.230;2023-06-26T12:54:09;10.03;;;4.30;;
71867;SDS011;59738;48.324;14.230;2023-06-26T12:56:36;9.50;;;4.60;;
71867;SDS011;59738;48.324;14.230;2023-06-26T12:59:03;9.80;;;4.82;;
71867;SDS011;59738;48.324;14.230;2023-06-26T13:01:30;11.80;;;4.80;;
71867;SDS011;59738;48.324;14.230;2023-06-26T13:03:58;9.65;;;4.70;;
71867;SDS011;59738;48.324;14.230;2023-06-26T13:06:26;12.47;;;5.57;;
71867;SDS011;59738;48.324;14.230;2023-06-26T13:08:53;10.98;;;5.15;;
71867;SDS011;59738;48.324;14.230;2023-06-26T13:11:20;8.10;;;4.68;;
71867;SDS011;59738;48.324;14.230;2023-06-26T13:13:48;6.45;;;5.07;;
71867;SDS011;59738;48.324;14.230;2023-06-26T13:16:15;6.45;;;4.43;;
71867;SDS011;59738;48.324;14.230;2023-06-26T13:18:42;5.17;;;4.23;;
71867;SDS011;59738;48.324;14.230;2023-06-26T13:21:09;8.00;;;4.88;;
71867;SDS011;59738;48.324;14.230;2023-06-26T13:23:37;10.70;;;4.82;;
71867;SDS011;59738;48.324;14.230;2023-06-26T13:26:04;7.32;;;4.35;;
71867;SDS011;59738;48.324;14.230;2023-06-26T13:28:31;6.07;;;4.35;;
71867;SDS011;59738;48.324;14.230;2023-06-26T13:30:58;5.73;;;4.40;;
71867;SDS011;59738;48.324;14.230;2023-06-26T13:33:25;7.07;;;4.50;;
71867;SDS011;59738;48.324;14.230;2023-06-26T13:35:52;4.97;;;3.78;;
71867;SDS011;59738;48.324;14.230;2023-06-26T13:38:20;5.45;;;4.22;;
71867;SDS011;59738;48.324;14.230;2023-06-26T13:40:51;5.90;;;4.60;;
71867;SDS011;59738;48.324;14.230;2023-06-26T13:43:19;14.53;;;4.63;;
71867;SDS011;59738;48.324;14.230;2023-06-26T13:45:47;6.65;;;4.47;;
71867;SDS011;59738;48.324;14.230;2023-06-26T13:48:13;5.47;;;4.30;;
71867;SDS011;59738;48.324;14.230;2023-06-26T13:50:40;6.32;;;4.57;;
71867;SDS011;59738;48.324;14.230;2023-06-26T13:53:07;5.82;;;4.38;;
71867;SDS011;59738;48.324;14.230;2023-06-26T13:55:34;10.20;;;4.80;;
71867;SDS011;59738;48.324;14.230;2023-06-26T13:58:04;16.65;;;5.32;;
71867;SDS011;59738;48.324;14.230;2023-06-26T14:00:32;17.80;;;5.90;;
71867;SDS011;59738;48.324;14.230;2023-06-26T14:02:59;9.63;;;4.75;;
71867;SDS011;59738;48.324;14.230;2023-06-26T14:05:26;6.20;;;4.70;;
71867;SDS011;59738;48.324;14.230;2023-06-26T14:07:53;7.43;;;4.70;;
71867;SDS011;59738;48.324;14.230;2023-06-26T14:10:20;6.65;;;4.63;;
71867;SDS011;59738;48.324;14.230;2023-06-26T14:12:47;6.15;;;4.53;;
71867;SDS011;59738;48.324;14.230;2023-06-26T14:15:16;7.55;;;4.65;;
71867;SDS011;59738;48.324;14.230;2023-06-26T14:17:43;6.20;;;4.68;;
71867;SDS011;59738;48.324;14.230;2023-06-26T14:20:10;5.30;;;4.30;;
71867;SDS011;59738;48.324;14.230;2023-06-26T14:22:38;6.22;;;4.43;;
71867;SDS011;59738;48.324;14.230;2023-06-26T14:25:06;7.35;;;4.70;;
71867;SDS011;59738;48.324;14.230;2023-06-26T14:27:33;9.73;;;4.28;;
71867;SDS011;59738;48.324;14.230;2023-06-26T14:29:59;10.70;;;4.63;;
71867;SDS011;59738;48.324;14.230;2023-06-26T14:32:28;9.73;;;4.57;;